Time;durP1;ratioP1;P1;durP2;ratioP2;P2;SDS_P1;SDS_P2;PMS_P1;PMS_P2;Temp;Humidity;BMP_temperature;BMP_pressure;BME280_temperature;BME280_humidity;BME280_pressure;Samples;Min_cycle;Max_cycle;Signal;HPM_P1;HPM_P2
2024/03/14 00:00:54;;;;;;;;;;;;;;;-146.32;100.00;63746.28;5149901;22;19990;-83
2024/03/14 00:03:16;;;;;;;;;;;;;;;-146.32;100.00;63746.28;5170859;22;19970;-85
2024/03/14 00:05:35;;;;;;;;;;;;;;;-146.32;100.00;63746.28;5154332;22;19946;-85
2024/03/14 00:08:00;;;;;;;;;;;;;;;-146.32;100.00;63746.28;5171941;22;19974;-84
2024/03/14 00:10:21;;;;;;;;;;;;;;;-146.32;100.00;63746.28;5170216;22;19954;-83
2024/03/14 00:12:49;;;;;;;;;;;;;;;-146.32;100.00;63746.28;5149407;22;20031;-84
2024/03/14 00:15:11;;;;;;;;;;;;;;;-146.32;100.00;63746.28;5171219;22;20354;-85
2024/03/14 00:17:32;;;;;;;;;;;;;;;-146.32;100.00;63746.28;5148074;22;19976;-85
2024/03/14 00:19:54;;;;;;;;;;;;;;;-146.32;100.00;63746.28;5169654;22;20255;-84
2024/03/14 00:22:14;;;;;;;;;;;;;;;-146.32;100.00;63746.28;5171599;22;20313;-84
2024/03/14 00:24:37;;;;;;;;;;;;;;;-146.32;100.00;63746.28;5149492;22;20003;-81
2024/03/14 00:26:59;;;;;;;;;;;;;;;-146.32;100.00;63746.28;5177494;22;19930;-84
2024/03/14 00:29:20;;;;;;;;;;;;;;;-146.32;100.00;63746.28;5157201;22;20260;-85
2024/03/14 00:31:41;;;;;;;;;;;;;;;-146.32;100.00;63746.28;5170629;22;19970;-85
2024/03/14 00:34:02;;;;;;;;;;;;;;;-146.32;100.00;63746.28;5170910;22;20040;-85
2024/03/14 00:36:23;;;;;;;;;;;;;;;-146.32;100.00;63746.28;5171422;22;19946;-86
2024/03/14 00:38:44;;;;;;;;;;;;;;;-146.32;100.00;63746.28;5170577;22;19994;-85
2024/03/14 00:41:04;;;;;;;;;;;;;;;-146.32;100.00;63746.28;5170512;22;19954;-84
2024/03/14 00:43:25;;;;;;;;;;;;;;;-146.32;100.00;63746.28;5171077;22;19926;-85
2024/03/14 00:45:46;;;;;;;;;;;;;;;-146.32;100.00;63746.28;5171563;22;19985;-85
2024/03/14 00:48:06;;;;;;;;;;;;;;;-146.32;100.00;63746.28;5170999;22;19947;-84
2024/03/14 00:50:28;;;;;;;;;;;;;;;-146.32;100.00;63746.28;5170976;22;20353;-86
2024/03/14 00:52:48;;;;;;;;;;;;;;;-146.32;100.00;63746.28;5171013;22;19926;-85
2024/03/14 00:55:09;;;;;;;;;;;;;;;-146.32;100.00;63746.28;5171105;22;19975;-86
2024/03/14 00:57:30;;;;;;;;;;;;;;;-146.32;100.00;63746.28;5171292;22;19926;-86
2024/03/14 00:59:50;;;;;;;;;;;;;;;-146.32;100.00;63746.28;5149690;22;19978;-87
2024/03/14 01:02:11;;;;;;;;;;;;;;;-146.32;100.00;63746.28;5149420;22;19930;-84
2024/03/14 01:04:32;;;;;;;;;;;;;;;-146.32;100.00;63746.28;5170267;22;19931;-84
2024/03/14 01:06:53;;;;;;;;;;;;;;;-146.32;100.00;63746.28;5170832;22;19930;-85
2024/03/14 01:09:14;;;;;;;;;;;;;;;-146.32;100.00;63746.28;5170762;22;19979;-84
2024/03/14 01:11:34;;;;;;;;;;;;;;;-146.32;100.00;63746.28;5170331;22;19925;-84
2024/03/14 01:13:55;;;;;;;;;;;;;;;-146.32;100.00;63746.28;5149308;22;20011;-84
2024/03/14 01:16:16;;;;;;;;;;;;;;;-146.32;100.00;63746.28;5170830;22;19946;-85
2024/03/14 01:18:36;;;;;;;;;;;;;;;-146.32;100.00;63746.28;5170561;22;20350;-85
2024/03/14 01:20:57;;;;;;;;;;;;;;;-146.32;100.00;63746.28;5170193;22;20342;-85
2024/03/14 01:23:17;;;;;;;;;;;;;;;-146.32;100.00;63746.28;5170474;22;19931;-85
2024/03/14 01:25:38;;;;;;;;;;;;;;;-146.32;100.00;63746.28;5170527;22;20362;-85
2024/03/14 01:27:58;;;;;;;;;;;;;;;-146.32;100.00;63746.28;5170912;22;19989;-84
2024/03/14 01:30:21;;;;;;;;;;;;;;;-146.32;100.00;63746.28;5149123;22;20271;-85
2024/03/14 01:32:41;;;;;;;;;;;;;;;-146.32;100.00;63746.28;5170731;22;19950;-85
2024/03/14 01:35:01;;;;;;;;;;;;;;;-146.32;100.00;63746.28;5150408;22;19927;-86
2024/03/14 01:37:22;;;;;;;;;;;;;;;-146.32;100.00;63746.28;5171006;22;19974;-84
2024/03/14 01:39:42;;;;;;;;;;;;;;;-146.32;100.00;63746.28;5148641;22;19927;-85
2024/03/14 01:42:03;;;;;;;;;;;;;;;-146.32;100.00;63746.28;5170423;22;19983;-85
2024/03/14 01:44:24;;;;;;;;;;;;;;;-146.32;100.00;63746.28;5149182;22;19935;-85
2024/03/14 01:46:44;;;;;;;;;;;;;;;-146.32;100.00;63746.28;5170188;22;19930;-85
2024/03/14 01:49:05;;;;;;;;;;;;;;;-146.32;100.00;63746.28;5149065;22;19926;-85
2024/03/14 01:51:26;;;;;;;;;;;;;;;-146.32;100.00;63746.28;5170198;22;19930;-86
2024/03/14 01:53:47;;;;;;;;;;;;;;;-146.32;100.00;63746.28;5170191;22;19971;-85
2024/03/14 01:56:07;;;;;;;;;;;;;;;-146.32;100.00;63746.28;5170799;22;20342;-85
2024/03/14 01:58:28;;;;;;;;;;;;;;;-146.32;100.00;63746.28;5170614;22;19973;-85
2024/03/14 02:00:48;;;;;;;;;;;;;;;-146.32;100.00;63746.28;5168695;22;19979;-84
2024/03/14 02:03:11;;;;;;;;;;;;;;;-146.32;100.00;63746.28;5148889;22;20415;-84
2024/03/14 02:05:32;;;;;;;;;;;;;;;-146.32;100.00;63746.28;5170528;22;19925;-88
2024/03/14 02:07:53;;;;;;;;;;;;;;;-146.32;100.00;63746.28;5170300;22;19927;-85
2024/03/14 02:10:14;;;;;;;;;;;;;;;-146.32;100.00;63746.28;5170502;22;19926;-84
2024/03/14 02:12:35;;;;;;;;;;;;;;;-146.32;100.00;63746.28;5171067;22;20279;-84
2024/03/14 02:14:55;;;;;;;;;;;;;;;-146.32;100.00;63746.28;5171773;22;20339;-84
2024/03/14 02:17:16;;;;;;;;;;;;;;;-146.32;100.00;63746.28;5172031;22;19926;-84
2024/03/14 02:19:38;;;;;;;;;;;;;;;-146.32;100.00;63746.28;5170120;22;20026;-85
2024/03/14 02:22:01;;;;;;;;;;;;;;;-146.32;100.00;63746.28;5149280;22;19934;-85
2024/03/14 02:24:25;;;;;;;;;;;;;;;-146.32;100.00;63746.28;5149462;22;20362;-87
2024/03/14 02:26:46;;;;;;;;;;;;;;;-146.32;100.00;63746.28;5170932;22;19925;-85
2024/03/14 02:29:08;;;;;;;;;;;;;;;-146.32;100.00;63746.28;5169996;22;19933;-86
2024/03/14 02:31:31;;;;;;;;;;;;;;;-146.32;100.00;63746.28;5171239;22;20412;-86
2024/03/14 02:33:53;;;;;;;;;;;;;;;-146.32;100.00;63746.28;5170684;22;19930;-85
2024/03/14 02:36:13;;;;;;;;;;;;;;;-146.32;100.00;63746.28;5170379;22;20402;-86
2024/03/14 02:38:34;;;;;;;;;;;;;;;-146.32;100.00;63746.28;5170114;22;19974;-84
2024/03/14 02:40:55;;;;;;;;;;;;;;;-146.32;100.00;63746.28;5148012;22;20066;-86
2024/03/14 02:43:16;;;;;;;;;;;;;;;-146.32;100.00;63746.28;5169597;22;19946;-86
2024/03/14 02:45:36;;;;;;;;;;;;;;;-146.32;100.00;63746.28;5148825;22;20200;-86
2024/03/14 02:47:58;;;;;;;;;;;;;;;-146.32;100.00;63746.28;5148754;22;19931;-86
2024/03/14 02:50:19;;;;;;;;;;;;;;;-146.32;100.00;63746.28;5169667;22;19958;-86
2024/03/14 02:52:40;;;;;;;;;;;;;;;-146.32;100.00;63746.28;5169907;22;19938;-85
2024/03/14 02:55:01;;;;;;;;;;;;;;;-146.32;100.00;63746.28;5170181;22;19970;-85
2024/03/14 02:57:22;;;;;;;;;;;;;;;-146.32;100.00;63746.28;5170364;22;19926;-85
2024/03/14 02:59:42;;;;;;;;;;;;;;;-146.32;100.00;63746.28;5169227;22;20014;-86
2024/03/14 03:02:03;;;;;;;;;;;;;;;-146.32;100.00;63746.28;5169783;22;20603;-85
2024/03/14 03:04:24;;;;;;;;;;;;;;;-146.32;100.00;63746.28;5170120;22;19926;-86
2024/03/14 03:06:48;;;;;;;;;;;;;;;-146.32;100.00;63746.28;5169353;22;19926;-86
2024/03/14 03:09:09;;;;;;;;;;;;;;;-146.32;100.00;63746.28;5149298;22;19926;-86
2024/03/14 03:11:32;;;;;;;;;;;;;;;-146.32;100.00;63746.28;5147512;22;20004;-86
2024/03/14 03:13:52;;;;;;;;;;;;;;;-146.32;100.00;63746.28;5148200;22;19974;-85
2024/03/14 03:16:13;;;;;;;;;;;;;;;-146.32;100.00;63746.28;5169974;22;19930;-85
2024/03/14 03:18:34;;;;;;;;;;;;;;;-146.32;100.00;63746.28;5170315;22;19962;-85
2024/03/14 03:20:55;;;;;;;;;;;;;;;-146.32;100.00;63746.28;5169532;22;20404;-85
2024/03/14 03:23:17;;;;;;;;;;;;;;;-146.32;100.00;63746.28;5169693;22;19926;-85
2024/03/14 03:25:38;;;;;;;;;;;;;;;-146.32;100.00;63746.28;5170163;22;19988;-84
2024/03/14 03:27:58;;;;;;;;;;;;;;;-146.32;100.00;63746.28;5170153;22;19926;-86
2024/03/14 03:30:19;;;;;;;;;;;;;;;-146.32;100.00;63746.28;5147707;22;19931;-86
2024/03/14 03:32:38;;;;;;;;;;;;;;;-146.32;100.00;63746.28;5169645;22;20001;-86
2024/03/14 03:35:00;;;;;;;;;;;;;;;-146.32;100.00;63746.28;5169924;22;20007;-85
2024/03/14 03:37:21;;;;;;;;;;;;;;;-146.32;100.00;63746.28;5147987;22;19927;-86
2024/03/14 03:39:44;;;;;;;;;;;;;;;-146.32;100.00;63746.28;5169348;22;19973;-86
2024/03/14 03:42:04;;;;;;;;;;;;;;;-146.32;100.00;63746.28;5168743;22;19969;-85
2024/03/14 03:44:25;;;;;;;;;;;;;;;-146.32;100.00;63746.28;5169421;22;19966;-86
2024/03/14 03:46:45;;;;;;;;;;;;;;;-146.32;100.00;63746.28;5169773;22;19930;-86
2024/03/14 03:49:06;;;;;;;;;;;;;;;-146.32;100.00;63746.28;5169813;22;19958;-86
2024/03/14 03:51:25;;;;;;;;;;;;;;;-146.32;100.00;63746.28;5169161;22;20493;-86
2024/03/14 03:53:46;;;;;;;;;;;;;;;-146.32;100.00;63746.28;5147635;22;19975;-86
2024/03/14 03:56:06;;;;;;;;;;;;;;;-146.32;100.00;63746.28;5170891;22;19930;-85
2024/03/14 03:58:28;;;;;;;;;;;;;;;-146.32;100.00;63746.28;5150142;22;20306;-85
2024/03/14 04:00:48;;;;;;;;;;;;;;;-146.32;100.00;63746.28;5149347;22;19958;-85
2024/03/14 04:03:09;;;;;;;;;;;;;;;-146.32;100.00;63746.28;5171201;22;19993;-85
2024/03/14 04:05:29;;;;;;;;;;;;;;;-146.32;100.00;63746.28;5171437;22;19934;-85
2024/03/14 04:07:50;;;;;;;;;;;;;;;-146.32;100.00;63746.28;5171331;22;20422;-87
2024/03/14 04:10:09;;;;;;;;;;;;;;;-146.32;100.00;63746.28;5171576;22;20432;-86
2024/03/14 04:12:30;;;;;;;;;;;;;;;-146.32;100.00;63746.28;5170574;22;19954;-87
2024/03/14 04:14:51;;;;;;;;;;;;;;;-146.32;100.00;63746.28;5171044;22;19965;-85
2024/03/14 04:17:12;;;;;;;;;;;;;;;-146.32;100.00;63746.28;5171338;22;19953;-84
2024/03/14 04:19:34;;;;;;;;;;;;;;;-146.32;100.00;63746.28;5170783;22;20033;-84
2024/03/14 04:21:55;;;;;;;;;;;;;;;-146.32;100.00;63746.28;5171304;22;20434;-83
2024/03/14 04:24:17;;;;;;;;;;;;;;;-146.32;100.00;63746.28;5170621;22;19975;-84
2024/03/14 04:26:38;;;;;;;;;;;;;;;-146.32;100.00;63746.28;5150232;22;20011;-92
2024/03/14 04:28:59;;;;;;;;;;;;;;;-146.32;100.00;63746.28;5149713;22;20299;-85
2024/03/14 04:31:20;;;;;;;;;;;;;;;-146.32;100.00;63746.28;5170093;22;19970;-85
2024/03/14 04:33:42;;;;;;;;;;;;;;;-146.32;100.00;63746.28;5170942;22;20003;-85
2024/03/14 04:36:03;;;;;;;;;;;;;;;-146.32;100.00;63746.28;5149847;22;19930;-84
2024/03/14 04:38:27;;;;;;;;;;;;;;;-146.32;100.00;63746.28;5148873;22;19998;-85
2024/03/14 04:40:48;;;;;;;;;;;;;;;-146.32;100.00;63746.28;5149115;22;19970;-85
2024/03/14 04:43:08;;;;;;;;;;;;;;;-146.32;100.00;63746.28;5170764;22;19934;-84
2024/03/14 04:45:29;;;;;;;;;;;;;;;-146.32;100.00;63746.28;5170934;22;19977;-86
2024/03/14 04:47:50;;;;;;;;;;;;;;;-146.32;100.00;63746.28;5171218;22;19950;-86
2024/03/14 04:50:14;;;;;;;;;;;;;;;-146.32;100.00;63746.28;5171055;22;20296;-83
2024/03/14 04:52:34;;;;;;;;;;;;;;;-146.32;100.00;63746.28;5171195;22;19939;-86
2024/03/14 04:54:55;;;;;;;;;;;;;;;-146.32;100.00;63746.28;5148653;22;19958;-86
2024/03/14 04:57:16;;;;;;;;;;;;;;;-146.32;100.00;63746.28;5149769;22;19927;-85
2024/03/14 04:59:37;;;;;;;;;;;;;;;-146.32;100.00;63746.28;5170794;22;19944;-85
2024/03/14 05:01:58;;;;;;;;;;;;;;;-146.32;100.00;63746.28;5170613;22;19974;-85
2024/03/14 05:04:19;;;;;;;;;;;;;;;-146.32;100.00;63746.28;5171039;22;19930;-84
2024/03/14 05:06:43;;;;;;;;;;;;;;;-146.32;100.00;63746.28;5171201;22;20007;-84
2024/03/14 05:09:07;;;;;;;;;;;;;;;-146.32;100.00;63746.28;5172482;22;19970;-85
2024/03/14 05:11:28;;;;;;;;;;;;;;;-146.32;100.00;63746.28;5150531;22;19931;-84
2024/03/14 05:13:56;;;;;;;;;;;;;;;-146.32;100.00;63746.28;5149588;22;20263;-83
2024/03/14 05:16:17;;;;;;;;;;;;;;;-146.32;100.00;63746.28;5150658;22;19930;-83
2024/03/14 05:18:37;;;;;;;;;;;;;;;-146.32;100.00;63746.28;5170196;22;19925;-83
2024/03/14 05:20:58;;;;;;;;;;;;;;;-146.32;100.00;63746.28;5170145;22;19930;-84
2024/03/14 05:23:19;;;;;;;;;;;;;;;-146.32;100.00;63746.28;5170584;22;20019;-83
2024/03/14 05:25:40;;;;;;;;;;;;;;;-146.32;100.00;63746.28;5148219;22;20315;-82
2024/03/14 05:28:00;;;;;;;;;;;;;;;-146.32;100.00;63746.28;5170040;22;20426;-83
2024/03/14 05:30:23;;;;;;;;;;;;;;;-146.32;100.00;63746.28;5169160;22;19973;-86
2024/03/14 05:32:44;;;;;;;;;;;;;;;-146.32;100.00;63746.28;5147606;22;19974;-84
2024/03/14 05:35:06;;;;;;;;;;;;;;;-146.32;100.00;63746.28;5169650;22;19931;-83
2024/03/14 05:37:26;;;;;;;;;;;;;;;-146.32;100.00;63746.28;5169236;22;20002;-83
2024/03/14 05:39:47;;;;;;;;;;;;;;;-146.32;100.00;63746.28;5164424;23;19930;-83
2024/03/14 05:42:12;;;;;;;;;;;;;;;-146.32;100.00;63746.28;5143788;23;20363;-82
2024/03/14 05:44:32;;;;;;;;;;;;;;;-146.32;100.00;63746.28;5165644;23;19975;-84
2024/03/14 05:46:53;;;;;;;;;;;;;;;-146.32;100.00;63746.28;5165306;23;19927;-84
2024/03/14 05:49:13;;;;;;;;;;;;;;;-146.32;100.00;63746.28;5165259;23;19926;-83
2024/03/14 05:51:34;;;;;;;;;;;;;;;-146.32;100.00;63746.28;5165326;23;20003;-83
2024/03/14 05:53:55;;;;;;;;;;;;;;;-146.32;100.00;63746.28;5165448;23;20393;-84
2024/03/14 05:56:16;;;;;;;;;;;;;;;-146.32;100.00;63746.28;5165551;23;20182;-82
2024/03/14 05:58:37;;;;;;;;;;;;;;;-146.32;100.00;63746.28;5144346;23;19994;-83
2024/03/14 06:00:58;;;;;;;;;;;;;;;-146.32;100.00;63746.28;5165307;23;19943;-82
2024/03/14 06:03:19;;;;;;;;;;;;;;;-146.32;100.00;63746.28;5143957;23;19939;-81
2024/03/14 06:05:40;;;;;;;;;;;;;;;-146.32;100.00;63746.28;5165245;23;20410;-82
2024/03/14 06:08:00;;;;;;;;;;;;;;;-146.32;100.00;63746.28;5165355;23;20266;-84
2024/03/14 06:10:21;;;;;;;;;;;;;;;-146.32;100.00;63746.28;5164709;23;20370;-83
2024/03/14 06:12:45;;;;;;;;;;;;;;;-146.32;100.00;63746.28;5144043;22;20031;-83
2024/03/14 06:15:07;;;;;;;;;;;;;;;-146.32;100.00;63746.28;5148387;22;19989;-82
2024/03/14 06:17:28;;;;;;;;;;;;;;;-146.32;100.00;63746.28;5169049;22;19979;-83
2024/03/14 06:19:48;;;;;;;;;;;;;;;-146.32;100.00;63746.28;5168020;22;20007;-81
2024/03/14 06:22:10;;;;;;;;;;;;;;;-146.32;100.00;63746.28;5168652;22;20018;-81
2024/03/14 06:24:31;;;;;;;;;;;;;;;-146.32;100.00;63746.28;5169617;22;20226;-83
2024/03/14 06:26:52;;;;;;;;;;;;;;;-146.32;100.00;63746.28;5168861;22;19928;-83
2024/03/14 06:29:12;;;;;;;;;;;;;;;-146.32;100.00;63746.28;5169268;22;19931;-85
2024/03/14 06:31:33;;;;;;;;;;;;;;;-146.32;100.00;63746.28;5169021;22;19946;-85
2024/03/14 06:33:54;;;;;;;;;;;;;;;-146.32;100.00;63746.28;5168844;22;19969;-86
2024/03/14 06:36:15;;;;;;;;;;;;;;;-146.32;100.00;63746.28;5147501;22;20002;-85
2024/03/14 06:38:35;;;;;;;;;;;;;;;-146.32;100.00;63746.28;5147383;22;19966;-85
2024/03/14 06:40:56;;;;;;;;;;;;;;;-146.32;100.00;63746.28;5159958;22;20046;-83
2024/03/14 06:43:16;;;;;;;;;;;;;;;-146.32;100.00;63746.28;5147527;22;19966;-85
2024/03/14 06:45:38;;;;;;;;;;;;;;;-146.32;100.00;63746.28;5169273;22;19926;-85
2024/03/14 06:47:59;;;;;;;;;;;;;;;-146.32;100.00;63746.28;5169212;22;19970;-84
2024/03/14 06:50:19;;;;;;;;;;;;;;;-146.32;100.00;63746.28;5168770;22;19931;-83
2024/03/14 06:52:40;;;;;;;;;;;;;;;-146.32;100.00;63746.28;5169069;22;19986;-83
2024/03/14 06:55:01;;;;;;;;;;;;;;;-146.32;100.00;63746.28;5144360;23;19931;-84
2024/03/14 06:57:22;;;;;;;;;;;;;;;-146.32;100.00;63746.28;5162770;23;20611;-85
2024/03/14 06:59:44;;;;;;;;;;;;;;;-146.32;100.00;63746.28;5145714;22;20593;-83
2024/03/14 07:02:05;;;;;;;;;;;;;;;-146.32;100.00;63746.28;5148435;22;19997;-84
2024/03/14 07:04:27;;;;;;;;;;;;;;;-146.32;100.00;63746.28;5169009;22;20014;-84
2024/03/14 07:06:47;;;;;;;;;;;;;;;-146.32;100.00;63746.28;5168819;22;19927;-84
2024/03/14 07:09:09;;;;;;;;;;;;;;;-146.32;100.00;63746.28;5168879;22;19966;-85
2024/03/14 07:11:29;;;;;;;;;;;;;;;-146.32;100.00;63746.28;5169118;22;20017;-86
2024/03/14 07:41:20;;;;;;;;;;;;;;;-146.32;100.00;63746.28;5186895;22;20363;-86
2024/03/14 16:07:12;;;;;;;;;;;;;;;-146.32;100.00;63746.28;5165197;23;19926;-90
2024/03/14 16:09:45;;;;;;;;;;;;;;;-146.32;100.00;63746.28;5124483;23;19959;-86
2024/03/14 16:12:09;;;;;;;;;;;;;;;-146.32;100.00;63746.28;5123837;23;19940;-84
2024/03/14 16:14:42;;;;;;;;;;;;;;;-146.32;100.00;63746.28;5146104;23;19970;-84
2024/03/14 16:17:04;;;;;;;;;;;;;;;-146.32;100.00;63746.28;5124858;23;20427;-83
2024/03/14 16:19:31;;;;;;;;;;;;;;;-146.32;100.00;63746.28;5144723;23;19981;-82
2024/03/14 16:22:02;;;;;;;;;;;;;;;-146.32;100.00;63746.28;5145369;23;19970;-81
2024/03/14 16:27:21;;;;;;;;;;;;;;;-146.32;100.00;63746.28;5162509;23;19930;-83
2024/03/14 16:29:45;;;;;;;;;;;;;;;-146.32;100.00;63746.28;5146168;23;19999;-82
2024/03/14 16:32:09;;;;;;;;;;;;;;;-146.32;100.00;63746.28;5144026;23;19927;-82
2024/03/14 16:34:38;;;;;;;;;;;;;;;-146.32;100.00;63746.28;5145624;23;19967;-83
2024/03/14 16:36:59;;;;;;;;;;;;;;;-146.32;100.00;63746.28;5147230;23;19979;-84
2024/03/14 16:39:22;;;;;;;;;;;;;;;-146.32;100.00;63746.28;5123908;23;19955;-82
2024/03/14 16:41:43;;;;;;;;;;;;;;;-146.32;100.00;63746.28;5145571;23;19954;-83
2024/03/14 16:48:00;;;;;;;;;;;;;;;-146.32;100.00;63746.28;5166875;23;20023;-83
2024/03/14 16:50:31;;;;;;;;;;;;;;;-146.32;100.00;63746.28;5144294;23;19962;-85
2024/03/14 16:52:54;;;;;;;;;;;;;;;-146.32;100.00;63746.28;5145945;23;20032;-84
2024/03/14 16:55:16;;;;;;;;;;;;;;;-146.32;100.00;63746.28;5123376;23;20382;-85
2024/03/14 16:57:37;;;;;;;;;;;;;;;-146.32;100.00;63746.28;5123426;23;20317;-85
2024/03/14 17:00:01;;;;;;;;;;;;;;;-146.32;100.00;63746.28;5123006;23;20311;-85
2024/03/14 17:02:25;;;;;;;;;;;;;;;-146.32;100.00;63746.28;5124763;23;19983;-86
2024/03/14 17:04:47;;;;;;;;;;;;;;;-146.32;100.00;63746.28;5122572;22;20015;-86
2024/03/14 17:07:08;;;;;;;;;;;;;;;-146.32;100.00;63746.28;5148230;22;20027;-86
2024/03/14 17:09:30;;;;;;;;;;;;;;;-146.32;100.00;63746.28;5168992;22;19979;-86
2024/03/14 17:11:51;;;;;;;;;;;;;;;-146.32;100.00;63746.28;5148129;22;19926;-87
2024/03/14 17:14:12;;;;;;;;;;;;;;;-146.32;100.00;63746.28;5171095;22;20632;-89
2024/03/14 17:16:36;;;;;;;;;;;;;;;-146.32;100.00;63746.28;5170325;22;20007;-84
2024/03/14 17:19:05;;;;;;;;;;;;;;;-146.32;100.00;63746.28;5149529;22;20007;-85
2024/03/14 17:21:30;;;;;;;;;;;;;;;-146.32;100.00;63746.28;5149079;22;19936;-83
2024/03/14 17:23:55;;;;;;;;;;;;;;;-146.32;100.00;63746.28;5151015;22;20022;-85
2024/03/14 17:26:26;;;;;;;;;;;;;;;-146.32;100.00;63746.28;5150769;22;20390;-94
2024/03/14 17:28:48;;;;;;;;;;;;;;;-146.32;100.00;63746.28;5153927;22;20255;-90
2024/03/14 17:31:10;;;;;;;;;;;;;;;-146.32;100.00;63746.28;5130201;22;19999;-89
2024/03/14 17:33:35;;;;;;;;;;;;;;;-146.32;100.00;63746.28;5151375;22;19930;-91
2024/03/14 17:35:55;;;;;;;;;;;;;;;-146.32;100.00;63746.28;5151135;22;19926;-92
2024/03/14 17:38:27;;;;;;;;;;;;;;;-146.32;100.00;63746.28;5174112;22;19954;-93
2024/03/14 17:40:48;;;;;;;;;;;;;;;-146.32;100.00;63746.28;5176746;22;19925;-93
2024/03/14 17:43:11;;;;;;;;;;;;;;;-146.32;100.00;63746.28;5173073;22;20397;-93
2024/03/14 17:45:31;;;;;;;;;;;;;;;-146.32;100.00;63746.28;5173512;22;19929;-91
2024/03/14 17:48:05;;;;;;;;;;;;;;;-146.32;100.00;63746.28;5157003;22;19947;-84
2024/03/14 17:53:14;;;;;;;;;;;;;;;-146.32;100.00;63746.28;5149067;22;20402;-83
2024/03/14 17:55:41;;;;;;;;;;;;;;;-146.32;100.00;63746.28;5170311;22;20250;-85
2024/03/14 17:58:01;;;;;;;;;;;;;;;-146.32;100.00;63746.28;5150007;22;20354;-85
2024/03/14 18:00:25;;;;;;;;;;;;;;;-146.32;100.00;63746.28;5170385;22;19934;-85
2024/03/14 18:02:46;;;;;;;;;;;;;;;-146.32;100.00;63746.28;5150805;22;19946;-89
2024/03/14 18:05:17;;;;;;;;;;;;;;;-146.32;100.00;63746.28;5151414;22;19926;-88
2024/03/14 18:07:43;;;;;;;;;;;;;;;-146.32;100.00;63746.28;5175926;22;19934;-88
2024/03/14 18:10:08;;;;;;;;;;;;;;;-146.32;100.00;63746.28;5153153;22;19954;-89
2024/03/14 18:12:29;;;;;;;;;;;;;;;-146.32;100.00;63746.28;5172970;22;19926;-87
2024/03/14 18:14:57;;;;;;;;;;;;;;;-146.32;100.00;63746.28;5171323;22;19958;-87
2024/03/14 18:20:08;;;;;;;;;;;;;;;-146.32;100.00;63746.28;5174028;22;19929;-85
2024/03/14 18:22:32;;;;;;;;;;;;;;;-146.32;100.00;63746.28;5169219;22;20353;-84
2024/03/14 18:24:54;;;;;;;;;;;;;;;-146.32;100.00;63746.28;5169751;22;19958;-84
2024/03/14 18:27:18;;;;;;;;;;;;;;;-146.32;100.00;63746.28;5148085;22;19946;-84
2024/03/14 18:29:54;;;;;;;;;;;;;;;-146.32;100.00;63746.28;5148994;22;20079;-85
2024/03/14 18:32:15;;;;;;;;;;;;;;;-146.32;100.00;63746.28;5170873;22;19969;-87
2024/03/14 18:34:43;;;;;;;;;;;;;;;-146.32;100.00;63746.28;5148279;22;19980;-87
2024/03/14 18:37:04;;;;;;;;;;;;;;;-146.32;100.00;63746.28;5171798;22;20364;-86
2024/03/14 18:39:41;;;;;;;;;;;;;;;-146.32;100.00;63746.28;5171995;22;19969;-83
2024/03/14 18:42:09;;;;;;;;;;;;;;;-146.32;100.00;63746.28;5147789;22;19931;-86
2024/03/14 18:44:34;;;;;;;;;;;;;;;-146.32;100.00;63746.28;5171419;22;19946;-87
2024/03/14 18:46:56;;;;;;;;;;;;;;;-146.32;100.00;63746.28;5166929;22;20246;-86
2024/03/14 18:49:23;;;;;;;;;;;;;;;-146.32;100.00;63746.28;5147085;22;20228;-84
2024/03/14 18:51:52;;;;;;;;;;;;;;;-146.32;100.00;63746.28;5168140;22;19968;-84
2024/03/14 18:54:14;;;;;;;;;;;;;;;-146.32;100.00;63746.28;5148602;22;19970;-84
2024/03/14 18:56:42;;;;;;;;;;;;;;;-146.32;100.00;63746.28;5170496;22;20433;-84
2024/03/14 18:59:05;;;;;;;;;;;;;;;-146.32;100.00;63746.28;5149564;22;19979;-86
2024/03/14 19:01:30;;;;;;;;;;;;;;;-146.32;100.00;63746.28;5150421;22;19976;-85
2024/03/14 19:03:57;;;;;;;;;;;;;;;-146.32;100.00;63746.28;5172637;22;20014;-87
2024/03/14 19:06:21;;;;;;;;;;;;;;;-146.32;100.00;63746.28;5125954;23;19926;-84
2024/03/14 19:08:49;;;;;;;;;;;;;;;-146.32;100.00;63746.28;5148253;23;19934;-85
2024/03/14 19:11:19;;;;;;;;;;;;;;;-146.32;100.00;63746.28;5165687;23;19927;-86
2024/03/14 19:16:28;;;;;;;;;;;;;;;-146.32;100.00;63746.28;5155102;22;20002;-86
2024/03/14 19:19:16;;;;;;;;;;;;;;;-146.32;100.00;63746.28;5171226;22;19989;-87
2024/03/14 19:24:31;;;;;;;;;;;;;;;-146.32;100.00;63746.28;5156080;22;20416;-88
2024/03/14 19:26:59;;;;;;;;;;;;;;;-146.32;100.00;63746.28;5150063;22;19943;-85
2024/03/14 19:29:22;;;;;;;;;;;;;;;-146.32;100.00;63746.28;5169420;22;19926;-85
2024/03/14 19:31:57;;;;;;;;;;;;;;;-146.32;100.00;63746.28;5148948;22;19926;-85
2024/03/14 19:34:35;;;;;;;;;;;;;;;-146.32;100.00;63746.28;5169289;22;19926;-83
2024/03/14 19:37:00;;;;;;;;;;;;;;;-146.32;100.00;63746.28;5171565;22;20297;-84
2024/03/14 19:39:31;;;;;;;;;;;;;;;-146.32;100.00;63746.28;5170365;22;20251;-86
2024/03/14 19:41:56;;;;;;;;;;;;;;;-146.32;100.00;63746.28;5169605;22;19934;-84
2024/03/14 19:44:17;;;;;;;;;;;;;;;-146.32;100.00;63746.28;5169182;22;20030;-84
2024/03/14 19:46:44;;;;;;;;;;;;;;;-146.32;100.00;63746.28;5169253;22;19961;-86
2024/03/14 19:49:13;;;;;;;;;;;;;;;-146.32;100.00;63746.28;5168879;22;19975;-86
2024/03/14 19:51:38;;;;;;;;;;;;;;;-146.32;100.00;63746.28;5170173;22;20337;-86
2024/03/14 19:54:06;;;;;;;;;;;;;;;-146.32;100.00;63746.28;5169334;22;19946;-85
2024/03/14 19:56:32;;;;;;;;;;;;;;;-146.32;100.00;63746.28;5148036;22;19981;-86
2024/03/14 19:58:55;;;;;;;;;;;;;;;-146.32;100.00;63746.28;5148618;22;20006;-86
2024/03/14 20:01:15;;;;;;;;;;;;;;;-146.32;100.00;63746.28;5146444;22;19975;-86
2024/03/14 20:03:39;;;;;;;;;;;;;;;-146.32;100.00;63746.28;5146868;22;20066;-86
2024/03/14 20:08:47;;;;;;;;;;;;;;;-146.32;100.00;63746.28;5151529;22;20334;-85
2024/03/14 20:11:30;;;;;;;;;;;;;;;-146.32;100.00;63746.28;5149012;22;19931;-86
2024/03/14 20:14:13;;;;;;;;;;;;;;;;;;;;;
2024/03/14 20:16:35;;;;;;;;;;;;;;;-146.32;100.00;63746.28;5174222;22;19925;-86
2024/03/14 20:19:06;;;;;;;;;;;;;;;-146.32;100.00;63746.28;5168981;22;19930;-85
2024/03/14 20:21:35;;;;;;;;;;;;;;;-146.32;100.00;63746.28;5150257;22;19955;-87
2024/03/14 20:24:24;;;;;;;;;;;;;;;-146.32;100.00;63746.28;5156407;22;20237;-92
2024/03/14 20:26:46;;;;;;;;;;;;;;;-146.32;100.00;63746.28;5176546;22;19926;-93
2024/03/14 20:29:32;;;;;;;;;;;;;;;-146.32;100.00;63746.28;5158101;22;19949;-93
2024/03/14 20:31:56;;;;;;;;;;;;;;;-146.32;100.00;63746.28;5177191;22;19926;-91
2024/03/14 20:34:21;;;;;;;;;;;;;;;-146.32;100.00;63746.28;5173887;22;20517;-89
2024/03/14 20:36:47;;;;;;;;;;;;;;;-146.32;100.00;63746.28;5174765;22;20010;-86
2024/03/14 20:41:56;;;;;;;;;;;;;;;-146.32;100.00;63746.28;5178410;22;20023;-93
2024/03/14 20:44:19;;;;;;;;;;;;;;;-146.32;100.00;63746.28;5154477;22;19957;-94
2024/03/14 20:46:40;;;;;;;;;;;;;;;-146.32;100.00;63746.28;5153282;22;19990;-89
2024/03/14 20:49:03;;;;;;;;;;;;;;;-146.32;100.00;63746.28;5175209;22;19930;-90
2024/03/14 20:51:49;;;;;;;;;;;;;;;;;;;;;
2024/03/14 20:54:27;;;;;;;;;;;;;;;-146.32;100.00;63746.28;5183144;22;19926;-84
2024/03/14 20:59:53;;;;;;;;;;;;;;;-146.32;100.00;63746.28;5199904;22;19977;-87
2024/03/14 21:02:14;;;;;;;;;;;;;;;-146.32;100.00;63746.28;5152925;22;19975;-86
2024/03/14 21:04:35;;;;;;;;;;;;;;;-146.32;100.00;63746.28;5189512;22;20011;-86
2024/03/14 21:06:57;;;;;;;;;;;;;;;-146.32;100.00;63746.28;5193963;22;19919;-87
2024/03/14 21:09:30;;;;;;;;;;;;;;;-146.32;100.00;63746.28;5193668;22;19930;-88
2024/03/14 21:11:54;;;;;;;;;;;;;;;-146.32;100.00;63746.28;5175183;22;19918;-88
2024/03/14 21:14:16;;;;;;;;;;;;;;;-146.32;100.00;63746.28;5194718;22;19910;-91
2024/03/14 21:16:42;;;;;;;;;;;;;;;-146.32;100.00;63746.28;5175118;22;19915;-90